sensor_id;sensor_type;location;lat;lon;timestamp;temperature;humidity
57576;DHT22;43412;-33.800;150.804;2022-08-04T00:05:06;19.20;99.90
57576;DHT22;43412;-33.800;150.804;2022-08-04T00:08:06;19.30;99.90
57576;DHT22;43412;-33.800;150.804;2022-08-04T00:10:39;19.30;99.90
57576;DHT22;43412;-33.800;150.804;2022-08-04T00:13:09;19.40;99.90
57576;DHT22;43412;-33.800;150.804;2022-08-04T00:15:37;19.50;99.90
57576;DHT22;43412;-33.800;150.804;2022-08-04T00:18:07;19.60;99.90
57576;DHT22;43412;-33.800;150.804;2022-08-04T00:20:38;19.60;99.90
57576;DHT22;43412;-33.800;150.804;2022-08-04T00:23:06;19.70;99.90
57576;DHT22;43412;-33.800;150.804;2022-08-04T00:25:38;19.80;99.90
57576;DHT22;43412;-33.800;150.804;2022-08-04T00:28:07;19.90;99.90
57576;DHT22;43412;-33.800;150.804;2022-08-04T00:30:35;19.90;99.90
57576;DHT22;43412;-33.800;150.804;2022-08-04T00:33:02;20.00;99.90
57576;DHT22;43412;-33.800;150.804;2022-08-04T00:35:30;20.00;99.90
57576;DHT22;43412;-33.800;150.804;2022-08-04T00:37:59;20.00;99.90
57576;DHT22;43412;-33.800;150.804;2022-08-04T01:00:32;19.70;99.90
57576;DHT22;43412;-33.800;150.804;2022-08-04T01:03:22;19.70;99.90
57576;DHT22;43412;-33.800;150.804;2022-08-04T01:06:16;19.70;99.90
57576;DHT22;43412;-33.800;150.804;2022-08-04T01:18:20;19.80;99.90
57576;DHT22;43412;-33.800;150.804;2022-08-04T01:21:01;19.80;99.90
57576;DHT22;43412;-33.800;150.804;2022-08-04T01:26:39;19.90;99.90
57576;DHT22;43412;-33.800;150.804;2022-08-04T01:29:11;19.90;99.90
57576;DHT22;43412;-33.800;150.804;2022-08-04T01:34:30;20.10;99.90
57576;DHT22;43412;-33.800;150.804;2022-08-04T01:37:10;20.10;99.90
57576;DHT22;43412;-33.800;150.804;2022-08-04T01:39:56;20.20;99.90
57576;DHT22;43412;-33.800;150.804;2022-08-04T01:42:30;20.20;99.90
57576;DHT22;43412;-33.800;150.804;2022-08-04T01:45:10;20.30;99.90
57576;DHT22;43412;-33.800;150.804;2022-08-04T01:47:49;20.30;99.90
57576;DHT22;43412;-33.800;150.804;2022-08-04T01:50:18;20.30;99.90
57576;DHT22;43412;-33.800;150.804;2022-08-04T01:52:46;20.30;99.90
57576;DHT22;43412;-33.800;150.804;2022-08-04T01:55:15;20.30;99.90
57576;DHT22;43412;-33.800;150.804;2022-08-04T01:57:46;20.30;99.90
57576;DHT22;43412;-33.800;150.804;2022-08-04T02:00:19;20.30;99.90
57576;DHT22;43412;-33.800;150.804;2022-08-04T02:02:49;20.40;99.90
57576;DHT22;43412;-33.800;150.804;2022-08-04T02:05:19;20.40;99.90
57576;DHT22;43412;-33.800;150.804;2022-08-04T02:08:11;20.40;99.90
57576;DHT22;43412;-33.800;150.804;2022-08-04T02:16:37;20.30;99.90
57576;DHT22;43412;-33.800;150.804;2022-08-04T02:21:40;20.30;99.90
57576;DHT22;43412;-33.800;150.804;2022-08-04T02:24:12;20.30;99.90
57576;DHT22;43412;-33.800;150.804;2022-08-04T02:26:41;20.20;99.90
57576;DHT22;43412;-33.800;150.804;2022-08-04T02:32:26;20.20;99.90
57576;DHT22;43412;-33.800;150.804;2022-08-04T02:35:02;20.20;99.90
57576;DHT22;43412;-33.800;150.804;2022-08-04T02:37:33;20.10;99.90
57576;DHT22;43412;-33.800;150.804;2022-08-04T02:40:04;20.20;99.90
57576;DHT22;43412;-33.800;150.804;2022-08-04T02:42:33;20.20;99.90
57576;DHT22;43412;-33.800;150.804;2022-08-04T02:45:02;20.20;99.90
57576;DHT22;43412;-33.800;150.804;2022-08-04T02:47:31;20.20;99.90
57576;DHT22;43412;-33.800;150.804;2022-08-04T02:50:00;20.20;99.90
57576;DHT22;43412;-33.800;150.804;2022-08-04T02:52:29;20.30;99.90
57576;DHT22;43412;-33.800;150.804;2022-08-04T02:54:59;20.40;99.90
57576;DHT22;43412;-33.800;150.804;2022-08-04T02:57:30;20.50;99.90
57576;DHT22;43412;-33.800;150.804;2022-08-04T03:05:44;20.50;99.90
57576;DHT22;43412;-33.800;150.804;2022-08-04T03:11:15;20.40;99.90
57576;DHT22;43412;-33.800;150.804;2022-08-04T03:29:02;20.20;99.90
57576;DHT22;43412;-33.800;150.804;2022-08-04T03:31:53;20.20;99.90
57576;DHT22;43412;-33.800;150.804;2022-08-04T03:37:36;20.20;99.90
57576;DHT22;43412;-33.800;150.804;2022-08-04T03:46:03;20.40;99.90
57576;DHT22;43412;-33.800;150.804;2022-08-04T04:17:47;20.80;99.90
57576;DHT22;43412;-33.800;150.804;2022-08-04T04:26:19;20.80;99.90
57576;DHT22;43412;-33.800;150.804;2022-08-04T04:35:18;20.70;99.90
57576;DHT22;43412;-33.800;150.804;2022-08-04T04:50:19;20.50;99.90
57576;DHT22;43412;-33.800;150.804;2022-08-04T04:53:27;20.50;99.90
57576;DHT22;43412;-33.800;150.804;2022-08-04T04:55:53;20.40;99.90
57576;DHT22;43412;-33.800;150.804;2022-08-04T04:58:22;20.40;99.90
57576;DHT22;43412;-33.800;150.804;2022-08-04T05:01:41;20.30;99.90
57576;DHT22;43412;-33.800;150.804;2022-08-04T05:04:06;20.30;99.90
57576;DHT22;43412;-33.800;150.804;2022-08-04T05:12:09;20.20;99.90
57576;DHT22;43412;-33.800;150.804;2022-08-04T05:14:43;20.20;99.90
57576;DHT22;43412;-33.800;150.804;2022-08-04T05:19:52;20.30;99.90
57576;DHT22;43412;-33.800;150.804;2022-08-04T05:22:23;20.30;99.90
57576;DHT22;43412;-33.800;150.804;2022-08-04T05:25:02;20.30;99.90
57576;DHT22;43412;-33.800;150.804;2022-08-04T05:27:44;20.30;99.90
57576;DHT22;43412;-33.800;150.804;2022-08-04T05:30:12;20.30;99.90
57576;DHT22;43412;-33.800;150.804;2022-08-04T05:32:54;20.20;99.90
57576;DHT22;43412;-33.800;150.804;2022-08-04T05:35:30;20.20;99.90
57576;DHT22;43412;-33.800;150.804;2022-08-04T05:38:01;20.20;99.90
57576;DHT22;43412;-33.800;150.804;2022-08-04T05:40:29;20.10;99.90
57576;DHT22;43412;-33.800;150.804;2022-08-04T05:42:56;20.00;99.90
57576;DHT22;43412;-33.800;150.804;2022-08-04T05:45:26;20.00;99.90
57576;DHT22;43412;-33.800;150.804;2022-08-04T05:47:54;20.00;99.90
57576;DHT22;43412;-33.800;150.804;2022-08-04T05:50:22;20.00;99.90
57576;DHT22;43412;-33.800;150.804;2022-08-04T05:52:51;20.00;99.90
57576;DHT22;43412;-33.800;150.804;2022-08-04T05:55:20;19.90;99.90
57576;DHT22;43412;-33.800;150.804;2022-08-04T05:57:48;19.80;99.90
57576;DHT22;43412;-33.800;150.804;2022-08-04T06:00:17;19.70;99.90
57576;DHT22;43412;-33.800;150.804;2022-08-04T06:02:49;19.60;99.90
57576;DHT22;43412;-33.800;150.804;2022-08-04T06:05:18;19.50;99.90
57576;DHT22;43412;-33.800;150.804;2022-08-04T06:07:47;19.40;99.90
57576;DHT22;43412;-33.800;150.804;2022-08-04T06:10:15;19.40;99.90
57576;DHT22;43412;-33.800;150.804;2022-08-04T06:12:55;19.30;99.90
57576;DHT22;43412;-33.800;150.804;2022-08-04T06:15:26;19.10;99.90
57576;DHT22;43412;-33.800;150.804;2022-08-04T06:17:57;19.00;99.90
57576;DHT22;43412;-33.800;150.804;2022-08-04T06:20:30;18.90;99.90
57576;DHT22;43412;-33.800;150.804;2022-08-04T06:23:09;18.70;99.90
57576;DHT22;43412;-33.800;150.804;2022-08-04T06:25:49;18.60;99.90
57576;DHT22;43412;-33.800;150.804;2022-08-04T06:28:18;18.60;99.90
57576;DHT22;43412;-33.800;150.804;2022-08-04T06:30:47;18.50;99.90
57576;DHT22;43412;-33.800;150.804;2022-08-04T06:33:17;18.50;99.90
57576;DHT22;43412;-33.800;150.804;2022-08-04T06:36:15;18.40;99.90
57576;DHT22;43412;-33.800;150.804;2022-08-04T06:38:43;18.40;99.90
57576;DHT22;43412;-33.800;150.804;2022-08-04T06:41:12;18.40;99.90
57576;DHT22;43412;-33.800;150.804;2022-08-04T06:43:39;18.50;99.90
57576;DHT22;43412;-33.800;150.804;2022-08-04T06:46:08;18.50;99.90
57576;DHT22;43412;-33.800;150.804;2022-08-04T06:48:36;18.40;99.90
57576;DHT22;43412;-33.800;150.804;2022-08-04T06:51:04;18.40;99.90
57576;DHT22;43412;-33.800;150.804;2022-08-04T06:53:32;18.40;99.90
57576;DHT22;43412;-33.800;150.804;2022-08-04T06:56:00;18.40;99.90
57576;DHT22;43412;-33.800;150.804;2022-08-04T06:58:31;18.30;99.90
57576;DHT22;43412;-33.800;150.804;2022-08-04T07:00:59;18.20;99.90
57576;DHT22;43412;-33.800;150.804;2022-08-04T07:03:28;18.00;99.90
57576;DHT22;43412;-33.800;150.804;2022-08-04T07:05:55;17.90;99.90
57576;DHT22;43412;-33.800;150.804;2022-08-04T07:08:23;17.80;99.90
57576;DHT22;43412;-33.800;150.804;2022-08-04T07:10:51;17.70;99.90
57576;DHT22;43412;-33.800;150.804;2022-08-04T07:13:20;17.60;99.90
57576;DHT22;43412;-33.800;150.804;2022-08-04T07:15:48;17.50;99.90
57576;DHT22;43412;-33.800;150.804;2022-08-04T07:18:16;17.50;99.90
57576;DHT22;43412;-33.800;150.804;2022-08-04T07:20:45;17.50;99.90
57576;DHT22;43412;-33.800;150.804;2022-08-04T07:23:16;17.50;99.90
57576;DHT22;43412;-33.800;150.804;2022-08-04T07:25:55;17.50;99.90
57576;DHT22;43412;-33.800;150.804;2022-08-04T07:28:28;17.50;99.90
57576;DHT22;43412;-33.800;150.804;2022-08-04T07:30:57;17.40;99.90
57576;DHT22;43412;-33.800;150.804;2022-08-04T07:33:25;17.40;99.90
57576;DHT22;43412;-33.800;150.804;2022-08-04T07:35:55;17.30;99.90
57576;DHT22;43412;-33.800;150.804;2022-08-04T07:41:27;17.40;99.90
57576;DHT22;43412;-33.800;150.804;2022-08-04T07:53:25;17.30;99.90
57576;DHT22;43412;-33.800;150.804;2022-08-04T07:55:54;17.20;99.90
57576;DHT22;43412;-33.800;150.804;2022-08-04T07:58:40;17.20;99.90
57576;DHT22;43412;-33.800;150.804;2022-08-04T08:01:08;17.20;99.90
57576;DHT22;43412;-33.800;150.804;2022-08-04T08:03:37;17.10;99.90
57576;DHT22;43412;-33.800;150.804;2022-08-04T08:06:05;17.10;99.90
57576;DHT22;43412;-33.800;150.804;2022-08-04T08:08:36;17.00;99.90
57576;DHT22;43412;-33.800;150.804;2022-08-04T08:11:04;16.90;99.90
57576;DHT22;43412;-33.800;150.804;2022-08-04T08:13:32;16.90;99.90
57576;DHT22;43412;-33.800;150.804;2022-08-04T08:16:01;16.90;99.90
57576;DHT22;43412;-33.800;150.804;2022-08-04T08:18:29;16.90;99.90
57576;DHT22;43412;-33.800;150.804;2022-08-04T08:20:57;16.90;99.90
57576;DHT22;43412;-33.800;150.804;2022-08-04T08:23:25;16.80;99.90
57576;DHT22;43412;-33.800;150.804;2022-08-04T08:25:57;16.80;99.90
57576;DHT22;43412;-33.800;150.804;2022-08-04T08:28:25;16.80;99.90
57576;DHT22;43412;-33.800;150.804;2022-08-04T08:30:52;16.80;99.90
57576;DHT22;43412;-33.800;150.804;2022-08-04T08:33:22;16.80;99.90
57576;DHT22;43412;-33.800;150.804;2022-08-04T08:50:41;16.80;99.90
57576;DHT22;43412;-33.800;150.804;2022-08-04T09:12:21;16.70;99.90
57576;DHT22;43412;-33.800;150.804;2022-08-04T09:17:53;16.80;99.90
57576;DHT22;43412;-33.800;150.804;2022-08-04T09:20:34;16.80;99.90
57576;DHT22;43412;-33.800;150.804;2022-08-04T09:28:28;16.80;99.90
57576;DHT22;43412;-33.800;150.804;2022-08-04T09:31:05;16.70;99.90
57576;DHT22;43412;-33.800;150.804;2022-08-04T09:34:31;16.80;99.90
57576;DHT22;43412;-33.800;150.804;2022-08-04T09:36:50;16.80;99.90
57576;DHT22;43412;-33.800;150.804;2022-08-04T09:42:44;16.70;99.90
57576;DHT22;43412;-33.800;150.804;2022-08-04T09:45:32;16.70;99.90
57576;DHT22;43412;-33.800;150.804;2022-08-04T09:48:07;16.70;99.90
57576;DHT22;43412;-33.800;150.804;2022-08-04T09:50:40;16.80;99.90
57576;DHT22;43412;-33.800;150.804;2022-08-04T09:53:19;16.80;99.90
57576;DHT22;43412;-33.800;150.804;2022-08-04T09:55:49;16.80;99.90
57576;DHT22;43412;-33.800;150.804;2022-08-04T10:01:22;16.80;99.90
57576;DHT22;43412;-33.800;150.804;2022-08-04T10:03:58;16.80;99.90
57576;DHT22;43412;-33.800;150.804;2022-08-04T10:14:57;16.80;99.90
57576;DHT22;43412;-33.800;150.804;2022-08-04T10:28:30;16.90;99.90
57576;DHT22;43412;-33.800;150.804;2022-08-04T10:31:08;16.90;99.90
57576;DHT22;43412;-33.800;150.804;2022-08-04T10:33:53;16.90;99.90
57576;DHT22;43412;-33.800;150.804;2022-08-04T10:36:29;16.90;99.90
57576;DHT22;43412;-33.800;150.804;2022-08-04T10:39:07;16.90;99.90
57576;DHT22;43412;-33.800;150.804;2022-08-04T10:47:00;16.80;99.90
57576;DHT22;43412;-33.800;150.804;2022-08-04T10:55:16;16.90;99.90
57576;DHT22;43412;-33.800;150.804;2022-08-04T10:58:03;16.80;99.90
57576;DHT22;43412;-33.800;150.804;2022-08-04T11:00:35;16.80;99.90
57576;DHT22;43412;-33.800;150.804;2022-08-04T11:05:40;16.80;99.90
57576;DHT22;43412;-33.800;150.804;2022-08-04T11:08:22;16.90;99.90
57576;DHT22;43412;-33.800;150.804;2022-08-04T11:10:58;16.90;99.90
57576;DHT22;43412;-33.800;150.804;2022-08-04T11:13:41;16.90;99.90
57576;DHT22;43412;-33.800;150.804;2022-08-04T11:16:25;17.00;99.90
57576;DHT22;43412;-33.800;150.804;2022-08-04T11:19:05;16.90;99.90
57576;DHT22;43412;-33.800;150.804;2022-08-04T11:21:46;16.90;99.90
57576;DHT22;43412;-33.800;150.804;2022-08-04T11:27:04;16.90;99.90
57576;DHT22;43412;-33.800;150.804;2022-08-04T11:32:21;16.80;99.90
57576;DHT22;43412;-33.800;150.804;2022-08-04T11:34:54;16.70;99.90
57576;DHT22;43412;-33.800;150.804;2022-08-04T11:37:30;16.80;99.90
57576;DHT22;43412;-33.800;150.804;2022-08-04T11:40:06;16.70;99.90
57576;DHT22;43412;-33.800;150.804;2022-08-04T11:42:42;16.60;99.90
57576;DHT22;43412;-33.800;150.804;2022-08-04T11:45:27;16.70;99.90
57576;DHT22;43412;-33.800;150.804;2022-08-04T11:48:05;16.70;99.90
57576;DHT22;43412;-33.800;150.804;2022-08-04T11:50:38;16.70;99.90
57576;DHT22;43412;-33.800;150.804;2022-08-04T11:53:12;16.70;99.90
57576;DHT22;43412;-33.800;150.804;2022-08-04T11:55:44;16.70;99.90
57576;DHT22;43412;-33.800;150.804;2022-08-04T11:58:15;16.60;99.90
57576;DHT22;43412;-33.800;150.804;2022-08-04T12:06:41;16.50;99.90
57576;DHT22;43412;-33.800;150.804;2022-08-04T12:09:35;16.50;99.90
57576;DHT22;43412;-33.800;150.804;2022-08-04T12:15:17;16.50;99.90
57576;DHT22;43412;-33.800;150.804;2022-08-04T12:18:06;16.50;99.90
57576;DHT22;43412;-33.800;150.804;2022-08-04T12:20:41;16.50;99.90
57576;DHT22;43412;-33.800;150.804;2022-08-04T12:23:32;16.50;99.90
57576;DHT22;43412;-33.800;150.804;2022-08-04T12:26:14;16.60;99.90
57576;DHT22;43412;-33.800;150.804;2022-08-04T12:28:45;16.50;99.90
57576;DHT22;43412;-33.800;150.804;2022-08-04T12:31:44;16.60;99.90
57576;DHT22;43412;-33.800;150.804;2022-08-04T12:34:45;16.60;99.90
57576;DHT22;43412;-33.800;150.804;2022-08-04T12:37:49;16.60;99.90
57576;DHT22;43412;-33.800;150.804;2022-08-04T12:40:24;16.50;99.90
57576;DHT22;43412;-33.800;150.804;2022-08-04T12:42:54;16.60;99.90
57576;DHT22;43412;-33.800;150.804;2022-08-04T12:45:24;16.60;99.90
57576;DHT22;43412;-33.800;150.804;2022-08-04T12:47:57;16.60;99.90
57576;DHT22;43412;-33.800;150.804;2022-08-04T12:50:25;16.60;99.90
57576;DHT22;43412;-33.800;150.804;2022-08-04T12:52:57;16.60;99.90
57576;DHT22;43412;-33.800;150.804;2022-08-04T12:55:29;16.60;99.90
57576;DHT22;43412;-33.800;150.804;2022-08-04T12:58:00;16.60;99.90
57576;DHT22;43412;-33.800;150.804;2022-08-04T13:00:35;16.60;99.90
57576;DHT22;43412;-33.800;150.804;2022-08-04T13:03:13;16.50;99.90
57576;DHT22;43412;-33.800;150.804;2022-08-04T13:05:42;16.50;99.90
57576;DHT22;43412;-33.800;150.804;2022-08-04T13:08:11;16.50;99.90
57576;DHT22;43412;-33.800;150.804;2022-08-04T13:10:41;16.50;99.90
57576;DHT22;43412;-33.800;150.804;2022-08-04T13:13:18;16.60;99.90
57576;DHT22;43412;-33.800;150.804;2022-08-04T13:15:59;16.60;99.90
57576;DHT22;43412;-33.800;150.804;2022-08-04T13:18:29;16.50;99.90
57576;DHT22;43412;-33.800;150.804;2022-08-04T13:21:12;16.50;99.90
57576;DHT22;43412;-33.800;150.804;2022-08-04T13:23:41;16.50;99.90
57576;DHT22;43412;-33.800;150.804;2022-08-04T13:26:13;16.50;99.90
57576;DHT22;43412;-33.800;150.804;2022-08-04T13:28:44;16.60;99.90
57576;DHT22;43412;-33.800;150.804;2022-08-04T13:31:20;16.60;99.90
57576;DHT22;43412;-33.800;150.804;2022-08-04T13:33:48;16.60;99.90
57576;DHT22;43412;-33.800;150.804;2022-08-04T13:36:18;16.60;99.90
57576;DHT22;43412;-33.800;150.804;2022-08-04T13:38:58;16.60;99.90
57576;DHT22;43412;-33.800;150.804;2022-08-04T13:41:29;16.70;99.90
57576;DHT22;43412;-33.800;150.804;2022-08-04T13:44:00;16.80;99.90
57576;DHT22;43412;-33.800;150.804;2022-08-04T13:46:31;16.80;99.90
57576;DHT22;43412;-33.800;150.804;2022-08-04T13:49:02;16.80;99.90
57576;DHT22;43412;-33.800;150.804;2022-08-04T13:51:35;16.80;99.90
57576;DHT22;43412;-33.800;150.804;2022-08-04T13:54:03;16.80;99.90
57576;DHT22;43412;-33.800;150.804;2022-08-04T13:56:47;16.80;99.90
57576;DHT22;43412;-33.800;150.804;2022-08-04T13:59:17;16.90;99.90
57576;DHT22;43412;-33.800;150.804;2022-08-04T14:02:03;17.00;99.90
57576;DHT22;43412;-33.800;150.804;2022-08-04T14:04:37;17.00;99.90
57576;DHT22;43412;-33.800;150.804;2022-08-04T14:07:12;16.90;99.90
57576;DHT22;43412;-33.800;150.804;2022-08-04T14:09:41;17.00;99.90
57576;DHT22;43412;-33.800;150.804;2022-08-04T14:12:13;17.00;99.90
57576;DHT22;43412;-33.800;150.804;2022-08-04T14:15:00;16.90;99.90
57576;DHT22;43412;-33.800;150.804;2022-08-04T14:17:27;16.90;99.90
57576;DHT22;43412;-33.800;150.804;2022-08-04T14:19:59;16.90;99.90
57576;DHT22;43412;-33.800;150.804;2022-08-04T14:25:02;16.90;99.90
57576;DHT22;43412;-33.800;150.804;2022-08-04T14:27:43;16.90;99.90
57576;DHT22;43412;-33.800;150.804;2022-08-04T14:30:28;16.90;99.90
57576;DHT22;43412;-33.800;150.804;2022-08-04T14:33:07;16.90;99.90
57576;DHT22;43412;-33.800;150.804;2022-08-04T14:35:36;16.90;99.90
57576;DHT22;43412;-33.800;150.804;2022-08-04T14:38:05;16.90;99.90
57576;DHT22;43412;-33.800;150.804;2022-08-04T14:40:36;16.90;99.90
57576;DHT22;43412;-33.800;150.804;2022-08-04T14:43:05;17.00;99.90
57576;DHT22;43412;-33.800;150.804;2022-08-04T14:45:50;17.00;99.90
57576;DHT22;43412;-33.800;150.804;2022-08-04T14:48:29;16.90;99.90
57576;DHT22;43412;-33.800;150.804;2022-08-04T14:50:57;16.90;99.90
57576;DHT22;43412;-33.800;150.804;2022-08-04T14:53:25;16.80;99.90
57576;DHT22;43412;-33.800;150.804;2022-08-04T14:55:58;16.80;99.90
57576;DHT22;43412;-33.800;150.804;2022-08-04T14:58:34;16.70;99.90
57576;DHT22;43412;-33.800;150.804;2022-08-04T15:01:04;16.60;99.90
57576;DHT22;43412;-33.800;150.804;2022-08-04T15:03:31;16.60;99.90
57576;DHT22;43412;-33.800;150.804;2022-08-04T15:06:00;16.60;99.90
57576;DHT22;43412;-33.800;150.804;2022-08-04T15:08:29;16.50;99.90
57576;DHT22;43412;-33.800;150.804;2022-08-04T15:10:58;16.40;99.90
57576;DHT22;43412;-33.800;150.804;2022-08-04T15:13:28;16.40;99.90
57576;DHT22;43412;-33.800;150.804;2022-08-04T15:15:56;16.30;99.90
57576;DHT22;43412;-33.800;150.804;2022-08-04T15:18:24;16.30;99.90
57576;DHT22;43412;-33.800;150.804;2022-08-04T15:20:56;16.40;99.90
57576;DHT22;43412;-33.800;150.804;2022-08-04T15:23:24;16.40;99.90
57576;DHT22;43412;-33.800;150.804;2022-08-04T15:25:54;16.30;99.90
57576;DHT22;43412;-33.800;150.804;2022-08-04T15:28:24;16.30;99.90
57576;DHT22;43412;-33.800;150.804;2022-08-04T15:30:54;16.20;99.90
57576;DHT22;43412;-33.800;150.804;2022-08-04T15:33:23;16.10;99.90
57576;DHT22;43412;-33.800;150.804;2022-08-04T15:36:07;16.00;99.90
57576;DHT22;43412;-33.800;150.804;2022-08-04T15:38:54;15.90;99.90
57576;DHT22;43412;-33.800;150.804;2022-08-04T15:41:32;15.80;99.90
57576;DHT22;43412;-33.800;150.804;2022-08-04T15:49:22;15.70;99.90
57576;DHT22;43412;-33.800;150.804;2022-08-04T15:52:13;15.70;99.90
57576;DHT22;43412;-33.800;150.804;2022-08-04T15:54:42;15.70;99.90
57576;DHT22;43412;-33.800;150.804;2022-08-04T15:57:10;15.80;99.90
57576;DHT22;43412;-33.800;150.804;2022-08-04T16:02:40;15.80;99.90
57576;DHT22;43412;-33.800;150.804;2022-08-04T16:08:15;15.60;99.90
57576;DHT22;43412;-33.800;150.804;2022-08-04T16:10:47;15.50;99.90
57576;DHT22;43412;-33.800;150.804;2022-08-04T16:13:18;15.40;99.90
57576;DHT22;43412;-33.800;150.804;2022-08-04T16:18:36;15.30;99.90
57576;DHT22;43412;-33.800;150.804;2022-08-04T16:21:06;15.20;99.90
57576;DHT22;43412;-33.800;150.804;2022-08-04T16:26:10;15.10;99.90
57576;DHT22;43412;-33.800;150.804;2022-08-04T16:28:40;15.00;99.90
57576;DHT22;43412;-33.800;150.804;2022-08-04T16:31:11;15.00;99.90
57576;DHT22;43412;-33.800;150.804;2022-08-04T16:33:39;14.90;99.90
57576;DHT22;43412;-33.800;150.804;2022-08-04T16:36:10;14.90;99.90
57576;DHT22;43412;-33.800;150.804;2022-08-04T16:39:00;14.80;99.90
57576;DHT22;43412;-33.800;150.804;2022-08-04T16:41:39;14.80;99.90
57576;DHT22;43412;-33.800;150.804;2022-08-04T16:44:35;14.70;99.90
57576;DHT22;43412;-33.800;150.804;2022-08-04T16:47:05;14.70;99.90
57576;DHT22;43412;-33.800;150.804;2022-08-04T16:49:33;14.70;99.90
57576;DHT22;43412;-33.800;150.804;2022-08-04T16:52:05;14.70;99.90
57576;DHT22;43412;-33.800;150.804;2022-08-04T16:54:35;14.70;99.90
57576;DHT22;43412;-33.800;150.804;2022-08-04T16:57:09;14.70;99.90
57576;DHT22;43412;-33.800;150.804;2022-08-04T16:59:37;14.70;99.90
57576;DHT22;43412;-33.800;150.804;2022-08-04T17:02:06;14.70;99.90
57576;DHT22;43412;-33.800;150.804;2022-08-04T17:04:35;14.70;99.90
57576;DHT22;43412;-33.800;150.804;2022-08-04T17:07:04;14.60;99.90
57576;DHT22;43412;-33.800;150.804;2022-08-04T17:09:32;14.60;99.90
57576;DHT22;43412;-33.800;150.804;2022-08-04T17:12:00;14.60;99.90
57576;DHT22;43412;-33.800;150.804;2022-08-04T17:14:31;14.50;99.90
57576;DHT22;43412;-33.800;150.804;2022-08-04T17:17:00;14.60;99.90
57576;DHT22;43412;-33.800;150.804;2022-08-04T17:19:29;14.60;99.90
57576;DHT22;43412;-33.800;150.804;2022-08-04T17:22:03;14.60;99.90
57576;DHT22;43412;-33.800;150.804;2022-08-04T17:24:35;14.70;99.90
57576;DHT22;43412;-33.800;150.804;2022-08-04T17:27:05;14.80;99.90
57576;DHT22;43412;-33.800;150.804;2022-08-04T17:29:34;14.90;99.90
57576;DHT22;43412;-33.800;150.804;2022-08-04T17:32:03;15.00;99.90
57576;DHT22;43412;-33.800;150.804;2022-08-04T17:34:30;15.00;99.90
57576;DHT22;43412;-33.800;150.804;2022-08-04T17:37:01;15.00;99.90
57576;DHT22;43412;-33.800;150.804;2022-08-04T17:39:28;15.00;99.90
57576;DHT22;43412;-33.800;150.804;2022-08-04T17:41:59;15.00;99.90
57576;DHT22;43412;-33.800;150.804;2022-08-04T17:44:36;15.00;99.90
57576;DHT22;43412;-33.800;150.804;2022-08-04T17:47:22;15.10;99.90
57576;DHT22;43412;-33.800;150.804;2022-08-04T17:49:49;15.00;99.90
57576;DHT22;43412;-33.800;150.804;2022-08-04T17:52:22;15.00;99.90
57576;DHT22;43412;-33.800;150.804;2022-08-04T17:54:58;14.90;99.90
57576;DHT22;43412;-33.800;150.804;2022-08-04T17:57:28;14.80;99.90
57576;DHT22;43412;-33.800;150.804;2022-08-04T17:59:56;14.80;99.90
57576;DHT22;43412;-33.800;150.804;2022-08-04T18:02:31;14.70;99.90
57576;DHT22;43412;-33.800;150.804;2022-08-04T18:05:00;14.70;99.90
57576;DHT22;43412;-33.800;150.804;2022-08-04T18:07:39;14.70;99.90
57576;DHT22;43412;-33.800;150.804;2022-08-04T18:10:08;14.80;99.90
57576;DHT22;43412;-33.800;150.804;2022-08-04T18:12:36;14.90;99.90
57576;DHT22;43412;-33.800;150.804;2022-08-04T18:15:19;14.90;99.90
57576;DHT22;43412;-33.800;150.804;2022-08-04T18:17:48;14.80;99.90
57576;DHT22;43412;-33.800;150.804;2022-08-04T18:20:17;14.80;99.90
57576;DHT22;43412;-33.800;150.804;2022-08-04T18:22:46;14.90;99.90
57576;DHT22;43412;-33.800;150.804;2022-08-04T18:25:15;14.90;99.90
57576;DHT22;43412;-33.800;150.804;2022-08-04T18:27:48;14.90;99.90
57576;DHT22;43412;-33.800;150.804;2022-08-04T18:30:17;14.80;99.90
57576;DHT22;43412;-33.800;150.804;2022-08-04T18:32:44;14.80;99.90
57576;DHT22;43412;-33.800;150.804;2022-08-04T18:35:12;14.90;99.90
57576;DHT22;43412;-33.800;150.804;2022-08-04T18:37:40;14.80;99.90
57576;DHT22;43412;-33.800;150.804;2022-08-04T18:40:09;14.80;99.90
57576;DHT22;43412;-33.800;150.804;2022-08-04T18:42:38;14.80;99.90
57576;DHT22;43412;-33.800;150.804;2022-08-04T18:45:06;14.70;99.90
57576;DHT22;43412;-33.800;150.804;2022-08-04T18:47:41;14.70;99.90
57576;DHT22;43412;-33.800;150.804;2022-08-04T18:50:08;14.60;99.90
57576;DHT22;43412;-33.800;150.804;2022-08-04T18:52:36;14.50;99.90
57576;DHT22;43412;-33.800;150.804;2022-08-04T18:55:04;14.40;99.90
57576;DHT22;43412;-33.800;150.804;2022-08-04T18:57:31;14.30;99.90
57576;DHT22;43412;-33.800;150.804;2022-08-04T18:59:59;14.30;99.90
57576;DHT22;43412;-33.800;150.804;2022-08-04T19:02:26;14.20;99.90
57576;DHT22;43412;-33.800;150.804;2022-08-04T19:04:54;14.20;99.90
57576;DHT22;43412;-33.800;150.804;2022-08-04T19:07:21;14.20;99.90
57576;DHT22;43412;-33.800;150.804;2022-08-04T19:09:48;14.10;99.90
57576;DHT22;43412;-33.800;150.804;2022-08-04T19:12:16;14.10;99.90
57576;DHT22;43412;-33.800;150.804;2022-08-04T19:14:43;14.00;99.90
57576;DHT22;43412;-33.800;150.804;2022-08-04T19:17:10;14.00;99.90
57576;DHT22;43412;-33.800;150.804;2022-08-04T19:19:38;13.90;99.90
57576;DHT22;43412;-33.800;150.804;2022-08-04T19:22:05;13.90;99.90
57576;DHT22;43412;-33.800;150.804;2022-08-04T19:24:32;13.70;99.90
57576;DHT22;43412;-33.800;150.804;2022-08-04T19:27:01;13.70;99.90
57576;DHT22;43412;-33.800;150.804;2022-08-04T19:29:29;13.60;99.90
57576;DHT22;43412;-33.800;150.804;2022-08-04T19:31:56;13.50;99.90
57576;DHT22;43412;-33.800;150.804;2022-08-04T19:34:24;13.50;99.90
57576;DHT22;43412;-33.800;150.804;2022-08-04T19:36:51;13.40;99.90
57576;DHT22;43412;-33.800;150.804;2022-08-04T19:39:18;13.30;99.90
57576;DHT22;43412;-33.800;150.804;2022-08-04T19:41:46;13.10;99.90
57576;DHT22;43412;-33.800;150.804;2022-08-04T19:44:15;13.00;99.90
57576;DHT22;43412;-33.800;150.804;2022-08-04T19:46:42;13.00;99.90
57576;DHT22;43412;-33.800;150.804;2022-08-04T19:49:12;12.90;99.90
57576;DHT22;43412;-33.800;150.804;2022-08-04T19:51:40;12.90;99.90
57576;DHT22;43412;-33.800;150.804;2022-08-04T19:54:07;12.90;99.90
57576;DHT22;43412;-33.800;150.804;2022-08-04T19:56:34;12.80;99.90